sensor_id;sensor_type;location;lat;lon;timestamp;pressure;altitude;pressure_sealevel;temperature;humidity
66857;BME280;53766;50.280;19.160;2022-10-22T00:01:05;98304.66;;;18.11;51.42
66857;BME280;53766;50.280;19.160;2022-10-22T00:03:37;98304.66;;;18.11;51.46
66857;BME280;53766;50.280;19.160;2022-10-22T00:06:05;98304.66;;;18.11;51.41
66857;BME280;53766;50.280;19.160;2022-10-22T00:08:34;98309.97;;;18.11;51.51
66857;BME280;53766;50.280;19.160;2022-10-22T00:11:13;98303.03;;;18.09;51.68
66857;BME280;53766;50.280;19.160;2022-10-22T00:13:41;98299.31;;;18.11;51.24
66857;BME280;53766;50.280;19.160;2022-10-22T00:16:09;98309.97;;;18.11;51.45
66857;BME280;53766;50.280;19.160;2022-10-22T00:18:37;98312.66;;;18.11;51.44
66857;BME280;53766;50.280;19.160;2022-10-22T00:21:06;98313.69;;;18.09;51.25
66857;BME280;53766;50.280;19.160;2022-10-22T00:23:34;98308.34;;;18.09;51.48
66857;BME280;53766;50.280;19.160;2022-10-22T00:26:01;98307.53;;;18.09;51.31
66857;BME280;53766;50.280;19.160;2022-10-22T00:28:29;98304.03;;;18.08;51.26
66857;BME280;53766;50.280;19.160;2022-10-22T00:31:00;98305.88;;;18.08;51.40
66857;BME280;53766;50.280;19.160;2022-10-22T00:33:28;98306.91;;;18.07;51.44
66857;BME280;53766;50.280;19.160;2022-10-22T00:35:56;98304.47;;;18.05;51.31
66857;BME280;53766;50.280;19.160;2022-10-22T00:38:24;98305.28;;;18.06;51.32
66857;BME280;53766;50.280;19.160;2022-10-22T00:40:52;98297.47;;;18.04;51.34
66857;BME280;53766;50.280;19.160;2022-10-22T00:43:20;98300.13;;;18.04;51.27
66857;BME280;53766;50.280;19.160;2022-10-22T00:45:47;98293.19;;;18.03;51.31
66857;BME280;53766;50.280;19.160;2022-10-22T00:48:26;98287.84;;;18.03;51.28
66857;BME280;53766;50.280;19.160;2022-10-22T00:51:05;98283.53;;;18.02;51.15
66857;BME280;53766;50.280;19.160;2022-10-22T00:53:44;98286.19;;;18.02;51.36
66857;BME280;53766;50.280;19.160;2022-10-22T00:56:14;98296.84;;;18.02;50.97
66857;BME280;53766;50.280;19.160;2022-10-22T00:58:45;98291.53;;;18.02;51.09
66857;BME280;53766;50.280;19.160;2022-10-22T01:01:18;98296.84;;;18.02;50.99
66857;BME280;53766;50.280;19.160;2022-10-22T01:03:48;98280.88;;;18.02;51.15
66857;BME280;53766;50.280;19.160;2022-10-22T01:06:28;98289.09;;;18.01;51.13
66857;BME280;53766;50.280;19.160;2022-10-22T01:17:39;98290.28;;;17.98;51.02
66857;BME280;53766;50.280;19.160;2022-10-22T01:23:47;98295.63;;;17.98;50.93
66857;BME280;53766;50.280;19.160;2022-10-22T01:29:56;98298.28;;;17.98;51.12
66857;BME280;53766;50.280;19.160;2022-10-22T01:32:25;98295.63;;;17.98;51.10
66857;BME280;53766;50.280;19.160;2022-10-22T01:35:01;98291.34;;;17.97;50.95
66857;BME280;53766;50.280;19.160;2022-10-22T01:37:34;98287.84;;;17.97;50.98
66857;BME280;53766;50.280;19.160;2022-10-22T01:40:04;98284.34;;;17.96;50.88
66857;BME280;53766;50.280;19.160;2022-10-22T01:42:33;98285.38;;;17.95;51.19
66857;BME280;53766;50.280;19.160;2022-10-22T01:45:04;98278.41;;;17.94;50.95
66857;BME280;53766;50.280;19.160;2022-10-22T01:58:43;98259.75;;;17.94;51.07
66857;BME280;53766;50.280;19.160;2022-10-22T02:03:48;98266.94;;;17.94;50.78
66857;BME280;53766;50.280;19.160;2022-10-22T02:06:21;98269.59;;;17.94;50.83
66857;BME280;53766;50.280;19.160;2022-10-22T02:08:51;98267.75;;;17.94;50.82
66857;BME280;53766;50.280;19.160;2022-10-22T02:11:21;98264.25;;;17.94;50.91
66857;BME280;53766;50.280;19.160;2022-10-22T02:13:52;98265.06;;;17.94;50.92
66857;BME280;53766;50.280;19.160;2022-10-22T02:16:33;98260.59;;;17.95;50.92
66857;BME280;53766;50.280;19.160;2022-10-22T02:19:06;98257.94;;;17.95;50.91
66857;BME280;53766;50.280;19.160;2022-10-22T02:21:37;98258.75;;;17.95;50.92
66857;BME280;53766;50.280;19.160;2022-10-22T02:24:04;98262.41;;;17.94;50.89
66857;BME280;53766;50.280;19.160;2022-10-22T02:26:44;98252.59;;;17.95;50.98
66857;BME280;53766;50.280;19.160;2022-10-22T02:29:27;98253.41;;;17.95;51.04
66857;BME280;53766;50.280;19.160;2022-10-22T02:31:59;98253.41;;;17.95;51.21
66857;BME280;53766;50.280;19.160;2022-10-22T02:34:30;98256.06;;;17.95;50.94
66857;BME280;53766;50.280;19.160;2022-10-22T02:37:00;98243.56;;;17.96;50.99
66857;BME280;53766;50.280;19.160;2022-10-22T02:39:30;98245.41;;;17.95;51.08
66857;BME280;53766;50.280;19.160;2022-10-22T02:42:00;98236.63;;;17.95;50.99
66857;BME280;53766;50.280;19.160;2022-10-22T02:44:28;98243.75;;;17.94;51.09
66857;BME280;53766;50.280;19.160;2022-10-22T02:46:57;98237.44;;;17.95;50.92
66857;BME280;53766;50.280;19.160;2022-10-22T02:49:25;98254.22;;;17.96;50.97
66857;BME280;53766;50.280;19.160;2022-10-22T02:51:53;98253.41;;;17.95;51.12
66857;BME280;53766;50.280;19.160;2022-10-22T02:54:21;98261.41;;;17.95;51.13
66857;BME280;53766;50.280;19.160;2022-10-22T02:56:48;98266.13;;;17.93;51.16
66857;BME280;53766;50.280;19.160;2022-10-22T02:59:16;98273.06;;;17.94;51.27
66857;BME280;53766;50.280;19.160;2022-10-22T03:01:44;98274.72;;;17.95;51.14
66857;BME280;53766;50.280;19.160;2022-10-22T03:04:12;98272.25;;;17.94;51.20
66857;BME280;53766;50.280;19.160;2022-10-22T03:06:40;98278.41;;;17.94;51.19
66857;BME280;53766;50.280;19.160;2022-10-22T03:09:10;98281.06;;;17.94;51.19
66857;BME280;53766;50.280;19.160;2022-10-22T03:11:38;98278.41;;;17.94;51.12
66857;BME280;53766;50.280;19.160;2022-10-22T03:14:05;98277.59;;;17.94;51.19
66857;BME280;53766;50.280;19.160;2022-10-22T03:16:33;98282.09;;;17.93;51.13
66857;BME280;53766;50.280;19.160;2022-10-22T03:19:01;98287.44;;;17.93;51.31
66857;BME280;53766;50.280;19.160;2022-10-22T03:21:42;98289.06;;;17.94;51.24
66857;BME280;53766;50.280;19.160;2022-10-22T03:24:14;98275.97;;;17.93;51.10
66857;BME280;53766;50.280;19.160;2022-10-22T03:26:44;98276.78;;;17.93;51.27
66857;BME280;53766;50.280;19.160;2022-10-22T03:29:13;98270.63;;;17.93;51.14
66857;BME280;53766;50.280;19.160;2022-10-22T03:31:42;98276.78;;;17.93;51.18
66857;BME280;53766;50.280;19.160;2022-10-22T03:34:09;98274.13;;;17.93;51.15
66857;BME280;53766;50.280;19.160;2022-10-22T03:36:40;98253.84;;;17.92;51.18
66857;BME280;53766;50.280;19.160;2022-10-22T03:39:09;98249.31;;;17.93;51.17
66857;BME280;53766;50.280;19.160;2022-10-22T03:41:38;98247.66;;;17.92;51.14
66857;BME280;53766;50.280;19.160;2022-10-22T03:44:06;98241.53;;;17.91;51.19
66857;BME280;53766;50.280;19.160;2022-10-22T03:46:34;98230.88;;;17.91;51.30
66857;BME280;53766;50.280;19.160;2022-10-22T03:49:02;98233.53;;;17.91;51.21
66857;BME280;53766;50.280;19.160;2022-10-22T03:51:29;98243.38;;;17.91;51.25
66857;BME280;53766;50.280;19.160;2022-10-22T03:53:57;98241.53;;;17.91;51.28
66857;BME280;53766;50.280;19.160;2022-10-22T03:56:25;98246.03;;;17.91;51.17
66857;BME280;53766;50.280;19.160;2022-10-22T03:58:55;98261.22;;;17.90;51.29
66857;BME280;53766;50.280;19.160;2022-10-22T04:01:24;98261.22;;;17.90;51.11
66857;BME280;53766;50.280;19.160;2022-10-22T04:03:53;98263.88;;;17.90;51.22
66857;BME280;53766;50.280;19.160;2022-10-22T04:06:21;98261.22;;;17.90;51.27
66857;BME280;53766;50.280;19.160;2022-10-22T04:08:49;98263.03;;;17.89;51.22
66857;BME280;53766;50.280;19.160;2022-10-22T04:11:17;98271.88;;;17.90;51.25
66857;BME280;53766;50.280;19.160;2022-10-22T04:13:45;98270.22;;;17.89;51.18
66857;BME280;53766;50.280;19.160;2022-10-22T04:16:15;98271.88;;;17.90;51.16
66857;BME280;53766;50.280;19.160;2022-10-22T04:18:45;98278.00;;;17.91;51.16
66857;BME280;53766;50.280;19.160;2022-10-22T04:21:15;98282.53;;;17.90;51.25
66857;BME280;53766;50.280;19.160;2022-10-22T04:23:45;98272.69;;;17.91;51.32
66857;BME280;53766;50.280;19.160;2022-10-22T04:26:15;98268.59;;;17.88;51.20
66857;BME280;53766;50.280;19.160;2022-10-22T04:28:43;98275.53;;;17.89;51.25
66857;BME280;53766;50.280;19.160;2022-10-22T04:31:16;98270.22;;;17.89;51.41
66857;BME280;53766;50.280;19.160;2022-10-22T04:33:44;98248.91;;;17.89;51.21
66857;BME280;53766;50.280;19.160;2022-10-22T04:36:15;98237.44;;;17.88;51.32
66857;BME280;53766;50.280;19.160;2022-10-22T04:38:44;98233.94;;;17.88;51.36
66857;BME280;53766;50.280;19.160;2022-10-22T04:41:15;98230.44;;;17.87;51.26
66857;BME280;53766;50.280;19.160;2022-10-22T04:43:43;98236.63;;;17.88;51.33
66857;BME280;53766;50.280;19.160;2022-10-22T04:46:12;98241.09;;;17.87;51.24
66857;BME280;53766;50.280;19.160;2022-10-22T04:48:41;98230.44;;;17.87;51.22
66857;BME280;53766;50.280;19.160;2022-10-22T04:51:15;98226.97;;;17.87;51.37
66857;BME280;53766;50.280;19.160;2022-10-22T04:53:43;98219.78;;;17.87;51.30
66857;BME280;53766;50.280;19.160;2022-10-22T04:56:26;98215.50;;;17.86;51.16
66857;BME280;53766;50.280;19.160;2022-10-22T04:58:59;98212.84;;;17.86;51.30
66857;BME280;53766;50.280;19.160;2022-10-22T05:01:32;98212.03;;;17.86;51.27
66857;BME280;53766;50.280;19.160;2022-10-22T05:04:07;98204.03;;;17.86;51.23
66857;BME280;53766;50.280;19.160;2022-10-22T05:06:36;98201.38;;;17.86;51.27
66857;BME280;53766;50.280;19.160;2022-10-22T05:09:06;98204.03;;;17.86;51.32
66857;BME280;53766;50.280;19.160;2022-10-22T05:11:36;98204.03;;;17.86;51.27
66857;BME280;53766;50.280;19.160;2022-10-22T05:14:05;98199.72;;;17.85;51.18
66857;BME280;53766;50.280;19.160;2022-10-22T05:16:34;98210.38;;;17.85;51.24
66857;BME280;53766;50.280;19.160;2022-10-22T05:19:03;98225.53;;;17.84;51.35
66857;BME280;53766;50.280;19.160;2022-10-22T05:21:31;98226.34;;;17.85;51.27
66857;BME280;53766;50.280;19.160;2022-10-22T05:23:59;98236.19;;;17.84;51.30
66857;BME280;53766;50.280;19.160;2022-10-22T05:26:27;98230.06;;;17.84;51.34
66857;BME280;53766;50.280;19.160;2022-10-22T05:28:55;98241.53;;;17.84;51.26
66857;BME280;53766;50.280;19.160;2022-10-22T05:31:23;98256.69;;;17.84;51.40
66857;BME280;53766;50.280;19.160;2022-10-22T05:33:51;98262.03;;;17.84;51.35
66857;BME280;53766;50.280;19.160;2022-10-22T05:36:20;98256.69;;;17.84;51.29
66857;BME280;53766;50.280;19.160;2022-10-22T05:38:48;98249.72;;;17.83;51.46
66857;BME280;53766;50.280;19.160;2022-10-22T05:41:19;98256.69;;;17.84;51.45
66857;BME280;53766;50.280;19.160;2022-10-22T05:43:47;98262.22;;;17.82;51.94
66857;BME280;53766;50.280;19.160;2022-10-22T05:46:19;98268.97;;;17.85;51.67
66857;BME280;53766;50.280;19.160;2022-10-22T05:48:50;98262.03;;;17.84;51.78
66857;BME280;53766;50.280;19.160;2022-10-22T05:51:18;98251.38;;;17.84;51.53
66857;BME280;53766;50.280;19.160;2022-10-22T05:53:53;98241.53;;;17.84;51.63
66857;BME280;53766;50.280;19.160;2022-10-22T05:56:22;98230.06;;;17.84;52.01
66857;BME280;53766;50.280;19.160;2022-10-22T05:58:51;98250.31;;;17.85;51.75
66857;BME280;53766;50.280;19.160;2022-10-22T06:03:46;98276.97;;;17.85;51.75
66857;BME280;53766;50.280;19.160;2022-10-22T06:08:53;98237.81;;;17.85;51.52
66857;BME280;53766;50.280;19.160;2022-10-22T06:11:22;98253.63;;;17.87;51.57
66857;BME280;53766;50.280;19.160;2022-10-22T06:13:51;98261.59;;;17.87;51.51
66857;BME280;53766;50.280;19.160;2022-10-22T06:16:19;98268.59;;;17.88;51.47
66857;BME280;53766;50.280;19.160;2022-10-22T06:18:46;98276.78;;;17.86;51.55
66857;BME280;53766;50.280;19.160;2022-10-22T06:21:15;98296.03;;;17.88;51.30
66857;BME280;53766;50.280;19.160;2022-10-22T06:23:42;98288.25;;;17.87;51.36
66857;BME280;53766;50.280;19.160;2022-10-22T06:26:10;98293.56;;;17.87;51.27
66857;BME280;53766;50.280;19.160;2022-10-22T06:28:38;98299.72;;;17.87;51.34
66857;BME280;53766;50.280;19.160;2022-10-22T06:31:06;98303.41;;;17.86;51.32
66857;BME280;53766;50.280;19.160;2022-10-22T06:33:33;98303.41;;;17.86;51.28
66857;BME280;53766;50.280;19.160;2022-10-22T06:36:05;98304.22;;;17.87;51.26
66857;BME280;53766;50.280;19.160;2022-10-22T06:38:34;98315.69;;;17.87;51.24
66857;BME280;53766;50.280;19.160;2022-10-22T06:41:03;98301.56;;;17.87;51.27
66857;BME280;53766;50.280;19.160;2022-10-22T06:43:31;98297.28;;;17.86;51.13
66857;BME280;53766;50.280;19.160;2022-10-22T06:46:07;98309.56;;;17.87;51.21
66857;BME280;53766;50.280;19.160;2022-10-22T06:48:37;98311.59;;;17.85;51.45
66857;BME280;53766;50.280;19.160;2022-10-22T06:51:08;98314.06;;;17.86;51.08
66857;BME280;53766;50.280;19.160;2022-10-22T06:53:37;98315.69;;;17.87;51.11
66857;BME280;53766;50.280;19.160;2022-10-22T06:56:10;98311.22;;;17.88;51.04
66857;BME280;53766;50.280;19.160;2022-10-22T06:58:38;98309.97;;;17.91;50.95
66857;BME280;53766;50.280;19.160;2022-10-22T07:01:08;98319.59;;;17.92;50.89
66857;BME280;53766;50.280;19.160;2022-10-22T07:03:38;98315.13;;;17.92;50.90
66857;BME280;53766;50.280;19.160;2022-10-22T07:06:08;98315.13;;;17.92;50.91
66857;BME280;53766;50.280;19.160;2022-10-22T07:08:37;98316.94;;;17.92;50.89
66857;BME280;53766;50.280;19.160;2022-10-22T07:13:33;98310.78;;;17.91;51.05
66857;BME280;53766;50.280;19.160;2022-10-22T07:16:02;98330.25;;;17.92;51.08
66857;BME280;53766;50.280;19.160;2022-10-22T07:18:30;98328.44;;;17.92;50.95
66857;BME280;53766;50.280;19.160;2022-10-22T07:20:58;98323.09;;;17.92;51.04
66857;BME280;53766;50.280;19.160;2022-10-22T07:23:27;98312.44;;;17.92;50.98
66857;BME280;53766;50.280;19.160;2022-10-22T07:25:55;98307.13;;;17.92;51.11
66857;BME280;53766;50.280;19.160;2022-10-22T07:28:28;98316.94;;;17.92;51.04
66857;BME280;53766;50.280;19.160;2022-10-22T07:30:56;98312.44;;;17.92;51.09
66857;BME280;53766;50.280;19.160;2022-10-22T07:33:23;98311.41;;;17.93;51.16
66857;BME280;53766;50.280;19.160;2022-10-22T07:36:00;98314.88;;;17.94;50.98
66857;BME280;53766;50.280;19.160;2022-10-22T07:38:27;98311.41;;;17.93;51.17
66857;BME280;53766;50.280;19.160;2022-10-22T07:40:56;98309.56;;;17.94;50.98
66857;BME280;53766;50.280;19.160;2022-10-22T07:43:24;98310.38;;;17.94;51.17
66857;BME280;53766;50.280;19.160;2022-10-22T07:45:52;98309.56;;;17.94;51.20
66857;BME280;53766;50.280;19.160;2022-10-22T07:48:22;98293.81;;;17.92;51.35
66857;BME280;53766;50.280;19.160;2022-10-22T07:50:51;98286.41;;;17.94;51.16
66857;BME280;53766;50.280;19.160;2022-10-22T07:53:18;98300.75;;;17.93;51.23
66857;BME280;53766;50.280;19.160;2022-10-22T07:55:49;98310.38;;;17.94;51.27
66857;BME280;53766;50.280;19.160;2022-10-22T07:58:18;98310.38;;;17.94;51.26
66857;BME280;53766;50.280;19.160;2022-10-22T08:00:46;98314.69;;;17.95;51.51
66857;BME280;53766;50.280;19.160;2022-10-22T08:03:15;98322.69;;;17.95;51.58
66857;BME280;53766;50.280;19.160;2022-10-22T08:05:44;98322.69;;;17.95;51.40
66857;BME280;53766;50.280;19.160;2022-10-22T08:08:13;98312.03;;;17.95;51.28
66857;BME280;53766;50.280;19.160;2022-10-22T08:10:42;98312.03;;;17.95;51.41
66857;BME280;53766;50.280;19.160;2022-10-22T08:13:10;98302.19;;;17.96;51.39
66857;BME280;53766;50.280;19.160;2022-10-22T08:15:38;98302.19;;;17.96;51.38
66857;BME280;53766;50.280;19.160;2022-10-22T08:18:06;98303.84;;;17.97;51.35
66857;BME280;53766;50.280;19.160;2022-10-22T08:20:34;98303.00;;;17.96;51.49
66857;BME280;53766;50.280;19.160;2022-10-22T08:23:01;98299.31;;;17.97;51.47
66857;BME280;53766;50.280;19.160;2022-10-22T08:25:29;98310.81;;;17.98;51.51
66857;BME280;53766;50.280;19.160;2022-10-22T08:27:57;98317.97;;;17.97;51.55
66857;BME280;53766;50.280;19.160;2022-10-22T08:30:25;98319.59;;;17.98;51.70
66857;BME280;53766;50.280;19.160;2022-10-22T08:32:56;98313.66;;;17.96;51.89
66857;BME280;53766;50.280;19.160;2022-10-22T08:35:23;98323.31;;;17.97;51.71
66857;BME280;53766;50.280;19.160;2022-10-22T08:37:51;98320.66;;;17.97;51.77
66857;BME280;53766;50.280;19.160;2022-10-22T08:40:23;98322.28;;;17.98;52.22
66857;BME280;53766;50.280;19.160;2022-10-22T08:43:19;98313.25;;;17.99;51.74
66857;BME280;53766;50.280;19.160;2022-10-22T08:48:47;98341.53;;;18.00;52.21
66857;BME280;53766;50.280;19.160;2022-10-22T08:51:23;98352.19;;;18.00;52.19
66857;BME280;53766;50.280;19.160;2022-10-22T08:56:35;98345.25;;;17.99;52.61
66857;BME280;53766;50.280;19.160;2022-10-22T08:59:16;98352.19;;;18.00;52.46
66857;BME280;53766;50.280;19.160;2022-10-22T09:01:50;98344.22;;;18.00;52.32
66857;BME280;53766;50.280;19.160;2022-10-22T09:04:27;98343.19;;;18.01;52.37
66857;BME280;53766;50.280;19.160;2022-10-22T09:06:58;98332.53;;;18.01;52.55
66857;BME280;53766;50.280;19.160;2022-10-22T09:09:30;98332.53;;;18.01;52.33
66857;BME280;53766;50.280;19.160;2022-10-22T09:11:59;98334.16;;;18.02;52.67
66857;BME280;53766;50.280;19.160;2022-10-22T09:14:27;98341.16;;;18.03;52.42
66857;BME280;53766;50.280;19.160;2022-10-22T09:17:35;98333.34;;;18.02;52.44
66857;BME280;53766;50.280;19.160;2022-10-22T09:23:23;98329.44;;;18.04;52.63
66857;BME280;53766;50.280;19.160;2022-10-22T09:25:55;98342.78;;;18.04;52.78
66857;BME280;53766;50.280;19.160;2022-10-22T09:28:25;98342.78;;;18.04;52.49
66857;BME280;53766;50.280;19.160;2022-10-22T09:30:52;98348.09;;;18.04;52.63
66857;BME280;53766;50.280;19.160;2022-10-22T09:33:26;98348.09;;;18.04;52.36
66857;BME280;53766;50.280;19.160;2022-10-22T09:35:57;98350.78;;;18.04;52.50
66857;BME280;53766;50.280;19.160;2022-10-22T09:38:28;98358.78;;;18.04;52.35
66857;BME280;53766;50.280;19.160;2022-10-22T09:40:58;98355.28;;;18.04;52.31
66857;BME280;53766;50.280;19.160;2022-10-22T09:43:26;98369.44;;;18.04;52.43
66857;BME280;53766;50.280;19.160;2022-10-22T09:45:59;98364.09;;;18.04;52.62
66857;BME280;53766;50.280;19.160;2022-10-22T09:48:40;98361.44;;;18.04;52.63
66857;BME280;53766;50.280;19.160;2022-10-22T09:51:18;98352.63;;;18.04;52.67
66857;BME280;53766;50.280;19.160;2022-10-22T09:53:57;98343.59;;;18.05;52.77
66857;BME280;53766;50.280;19.160;2022-10-22T09:56:38;98340.13;;;18.04;52.95
66857;BME280;53766;50.280;19.160;2022-10-22T09:59:18;98344.44;;;18.05;52.81
66857;BME280;53766;50.280;19.160;2022-10-22T10:01:59;98345.44;;;18.04;52.92
66857;BME280;53766;50.280;19.160;2022-10-22T10:04:48;98347.09;;;18.05;52.88
66857;BME280;53766;50.280;19.160;2022-10-22T10:07:29;98346.06;;;18.06;52.90
66857;BME280;53766;50.280;19.160;2022-10-22T10:09:58;98358.56;;;18.06;53.17
66857;BME280;53766;50.280;19.160;2022-10-22T10:21:05;98358.38;;;18.07;53.58
66857;BME280;53766;50.280;19.160;2022-10-22T10:23:52;98359.19;;;18.08;53.40
66857;BME280;53766;50.280;19.160;2022-10-22T10:26:38;98355.72;;;18.07;53.53
66857;BME280;53766;50.280;19.160;2022-10-22T10:40:41;98366.16;;;18.09;53.66
66857;BME280;53766;50.280;19.160;2022-10-22T10:43:18;98356.34;;;18.09;53.69
66857;BME280;53766;50.280;19.160;2022-10-22T10:54:27;98344.00;;;18.08;53.28
66857;BME280;53766;50.280;19.160;2022-10-22T10:57:18;98336.22;;;18.07;53.47
66857;BME280;53766;50.280;19.160;2022-10-22T11:05:40;98333.78;;;18.05;52.99
66857;BME280;53766;50.280;19.160;2022-10-22T11:08:18;98333.78;;;18.05;53.09
66857;BME280;53766;50.280;19.160;2022-10-22T11:15:54;98325.97;;;18.04;53.08
66857;BME280;53766;50.280;19.160;2022-10-22T11:18:37;98316.13;;;18.04;52.89
66857;BME280;53766;50.280;19.160;2022-10-22T11:21:09;98316.13;;;18.04;52.74
66857;BME280;53766;50.280;19.160;2022-10-22T11:23:45;98309.19;;;18.03;52.92
66857;BME280;53766;50.280;19.160;2022-10-22T11:26:55;98310.81;;;18.04;52.66
66857;BME280;53766;50.280;19.160;2022-10-22T11:29:28;98310.81;;;18.04;52.89
66857;BME280;53766;50.280;19.160;2022-10-22T11:32:01;98303.84;;;18.03;52.99
66857;BME280;53766;50.280;19.160;2022-10-22T11:34:44;98305.47;;;18.04;52.62
66857;BME280;53766;50.280;19.160;2022-10-22T11:37:14;98310.81;;;18.04;52.86
66857;BME280;53766;50.280;19.160;2022-10-22T11:40:00;98309.19;;;18.03;52.70
66857;BME280;53766;50.280;19.160;2022-10-22T11:42:37;98306.50;;;18.03;52.70
66857;BME280;53766;50.280;19.160;2022-10-22T11:48:15;98303.84;;;18.03;52.71
66857;BME280;53766;50.280;19.160;2022-10-22T11:50:50;98304.84;;;18.02;52.55
66857;BME280;53766;50.280;19.160;2022-10-22T11:53:35;98307.53;;;18.02;52.82
66857;BME280;53766;50.280;19.160;2022-10-22T11:56:22;98308.31;;;18.03;52.71
66857;BME280;53766;50.280;19.160;2022-10-22T11:58:54;98311.00;;;18.03;52.63
66857;BME280;53766;50.280;19.160;2022-10-22T12:01:27;98313.88;;;18.01;52.55
66857;BME280;53766;50.280;19.160;2022-10-22T12:06:52;98316.56;;;18.01;52.72
66857;BME280;53766;50.280;19.160;2022-10-22T12:09:22;98310.41;;;18.01;52.74
66857;BME280;53766;50.280;19.160;2022-10-22T12:11:53;98309.56;;;18.00;52.64
66857;BME280;53766;50.280;19.160;2022-10-22T12:14:51;98295.22;;;18.01;52.75
66857;BME280;53766;50.280;19.160;2022-10-22T12:17:20;98294.41;;;18.01;52.78
66857;BME280;53766;50.280;19.160;2022-10-22T12:20:03;98303.22;;;18.01;52.66
66857;BME280;53766;50.280;19.160;2022-10-22T12:22:34;98306.91;;;18.00;52.64
66857;BME280;53766;50.280;19.160;2022-10-22T12:25:20;98305.06;;;18.01;52.54
66857;BME280;53766;50.280;19.160;2022-10-22T12:27:50;98296.25;;;18.00;52.75
66857;BME280;53766;50.280;19.160;2022-10-22T12:30:25;98287.44;;;18.00;52.61
66857;BME280;53766;50.280;19.160;2022-10-22T12:32:58;98293.56;;;18.00;52.49
66857;BME280;53766;50.280;19.160;2022-10-22T12:35:32;98289.09;;;18.01;52.46
66857;BME280;53766;50.280;19.160;2022-10-22T12:38:06;98298.91;;;18.00;52.50
66857;BME280;53766;50.280;19.160;2022-10-22T12:40:36;98306.09;;;18.00;52.60
66857;BME280;53766;50.280;19.160;2022-10-22T12:43:11;98302.59;;;17.99;52.38
66857;BME280;53766;50.280;19.160;2022-10-22T12:45:39;98299.94;;;17.99;52.42
66857;BME280;53766;50.280;19.160;2022-10-22T12:48:22;98291.94;;;17.99;52.42
66857;BME280;53766;50.280;19.160;2022-10-22T12:50:53;98286.00;;;17.97;52.43
66857;BME280;53766;50.280;19.160;2022-10-22T12:53:36;98288.66;;;17.97;52.50
66857;BME280;53766;50.280;19.160;2022-10-22T12:56:10;98286.41;;;17.94;52.64
66857;BME280;53766;50.280;19.160;2022-10-22T13:01:30;98277.19;;;17.97;52.52
66857;BME280;53766;50.280;19.160;2022-10-22T13:09:38;98275.97;;;17.99;52.49
66857;BME280;53766;50.280;19.160;2022-10-22T13:12:08;98276.78;;;18.00;52.48
66857;BME280;53766;50.280;19.160;2022-10-22T13:14:43;98268.59;;;18.01;52.35
66857;BME280;53766;50.280;19.160;2022-10-22T13:17:20;98278.44;;;18.01;52.32
66857;BME280;53766;50.280;19.160;2022-10-22T13:22:35;98279.25;;;18.01;52.45
66857;BME280;53766;50.280;19.160;2022-10-22T13:27:44;98268.59;;;18.01;52.25
66857;BME280;53766;50.280;19.160;2022-10-22T13:30:25;98264.88;;;18.02;52.43
66857;BME280;53766;50.280;19.160;2022-10-22T13:32:59;98276.56;;;18.01;52.41
66857;BME280;53766;50.280;19.160;2022-10-22T13:35:31;98285.38;;;18.02;52.25
66857;BME280;53766;50.280;19.160;2022-10-22T13:38:00;98287.25;;;18.01;52.36
66857;BME280;53766;50.280;19.160;2022-10-22T13:40:28;98284.56;;;18.01;52.34
66857;BME280;53766;50.280;19.160;2022-10-22T13:42:56;98281.91;;;18.01;52.24
66857;BME280;53766;50.280;19.160;2022-10-22T13:45:24;98285.38;;;18.02;52.27
66857;BME280;53766;50.280;19.160;2022-10-22T13:47:52;98284.56;;;18.01;52.65
66857;BME280;53766;50.280;19.160;2022-10-22T13:50:20;98292.34;;;18.03;52.58
66857;BME280;53766;50.280;19.160;2022-10-22T13:52:53;98292.34;;;18.03;52.25
66857;BME280;53766;50.280;19.160;2022-10-22T13:55:24;98298.50;;;18.03;52.42
66857;BME280;53766;50.280;19.160;2022-10-22T13:57:55;98288.88;;;18.02;52.75
66857;BME280;53766;50.280;19.160;2022-10-22T14:00:25;98286.19;;;18.02;52.64
66857;BME280;53766;50.280;19.160;2022-10-22T14:02:56;98296.84;;;18.02;52.52
66857;BME280;53766;50.280;19.160;2022-10-22T14:05:24;98289.91;;;18.01;52.54
66857;BME280;53766;50.280;19.160;2022-10-22T14:07:52;98295.22;;;18.01;52.61
66857;BME280;53766;50.280;19.160;2022-10-22T14:10:24;98289.91;;;18.01;52.50
66857;BME280;53766;50.280;19.160;2022-10-22T14:12:52;98289.09;;;18.01;52.62
66857;BME280;53766;50.280;19.160;2022-10-22T14:15:23;98294.41;;;18.01;52.68
66857;BME280;53766;50.280;19.160;2022-10-22T14:17:56;98305.91;;;18.01;52.91
66857;BME280;53766;50.280;19.160;2022-10-22T14:20:28;98306.69;;;18.02;53.01
66857;BME280;53766;50.280;19.160;2022-10-22T14:23:01;98306.69;;;18.02;53.05
66857;BME280;53766;50.280;19.160;2022-10-22T14:25:29;98312.84;;;18.02;52.95
66857;BME280;53766;50.280;19.160;2022-10-22T14:27:57;98312.03;;;18.02;52.93
66857;BME280;53766;50.280;19.160;2022-10-22T14:30:25;98305.91;;;18.01;53.51
66857;BME280;53766;50.280;19.160;2022-10-22T14:32:56;98307.53;;;18.02;53.51
66857;BME280;53766;50.280;19.160;2022-10-22T14:35:24;98309.19;;;18.03;53.26
66857;BME280;53766;50.280;19.160;2022-10-22T14:37:54;98303.84;;;18.03;53.71
66857;BME280;53766;50.280;19.160;2022-10-22T14:40:24;98314.50;;;18.03;53.79
66857;BME280;53766;50.280;19.160;2022-10-22T14:42:52;98310.81;;;18.04;54.15
66857;BME280;53766;50.280;19.160;2022-10-22T14:45:22;98310.81;;;18.04;54.13
66857;BME280;53766;50.280;19.160;2022-10-22T14:47:52;98321.47;;;18.04;53.97
66857;BME280;53766;50.280;19.160;2022-10-22T14:50:24;98317.78;;;18.05;54.26
66857;BME280;53766;50.280;19.160;2022-10-22T14:52:51;98312.47;;;18.05;54.89
66857;BME280;53766;50.280;19.160;2022-10-22T14:55:19;98311.22;;;18.08;54.45
66857;BME280;53766;50.280;19.160;2022-10-22T14:57:47;98312.03;;;18.08;54.89